Time;durP1;ratioP1;P1;durP2;ratioP2;P2;SDS_P1;SDS_P2;PMS_P1;PMS_P2;Temp;Humidity;BMP_temperature;BMP_pressure;BME280_temperature;BME280_humidity;BME280_pressure;Samples;Min_cycle;Max_cycle;Signal;HPM_P1;HPM_P2
2022/07/18 00:00:16;;;;;;;6.65;4.32;;;22.40;58.40;;;;;;4970054;28;20502;-55
2022/07/18 00:02:43;;;;;;;8.15;4.35;;;22.40;58.40;;;;;;4969980;28;20047;-53
2022/07/18 00:05:10;;;;;;;6.57;4.05;;;22.40;58.40;;;;;;4970057;28;20569;-55
2022/07/18 00:07:37;;;;;;;7.50;4.35;;;22.40;58.50;;;;;;4967805;28;20395;-53
2022/07/18 00:10:04;;;;;;;5.68;4.05;;;22.40;58.50;;;;;;4970130;28;20051;-55
2022/07/18 00:12:31;;;;;;;7.60;4.20;;;22.40;58.70;;;;;;4969252;28;20529;-54
2022/07/18 00:14:58;;;;;;;7.15;4.40;;;22.30;58.60;;;;;;4970097;28;20167;-53
2022/07/18 00:17:25;;;;;;;7.95;3.53;;;22.30;58.60;;;;;;4969612;28;20078;-57
2022/07/18 00:19:52;;;;;;;8.00;4.07;;;22.30;58.60;;;;;;4970006;28;20497;-53
2022/07/18 00:22:19;;;;;;;7.25;4.45;;;22.30;58.60;;;;;;4969946;28;20152;-54
2022/07/18 00:24:46;;;;;;;7.68;3.80;;;22.30;58.60;;;;;;4969693;28;20122;-53
2022/07/18 00:27:13;;;;;;;8.82;4.47;;;22.30;58.70;;;;;;4969624;28;20097;-55
2022/07/18 00:29:39;;;;;;;12.45;4.65;;;22.30;58.60;;;;;;4969422;28;20489;-53
2022/07/18 00:32:07;;;;;;;7.40;4.03;;;22.30;58.70;;;;;;4969741;28;20070;-54
2022/07/18 00:34:34;;;;;;;8.38;4.60;;;22.20;58.70;;;;;;4967985;28;20082;-54
2022/07/18 00:37:01;;;;;;;12.18;4.57;;;22.20;58.90;;;;;;4968353;28;20106;-56
2022/07/18 00:39:28;;;;;;;10.13;4.90;;;22.20;59.00;;;;;;4967865;28;20078;-52
2022/07/18 00:41:54;;;;;;;8.90;4.68;;;22.20;59.00;;;;;;4969097;28;20565;-55
2022/07/18 00:44:23;;;;;;;12.60;4.60;;;22.20;59.00;;;;;;4969369;28;20082;-53
2022/07/18 00:46:51;;;;;;;7.53;4.05;;;22.20;59.00;;;;;;4968900;28;20051;-55
2022/07/18 00:49:18;;;;;;;7.72;4.50;;;22.20;59.10;;;;;;4969560;28;20466;-55
2022/07/18 00:51:46;;;;;;;6.88;4.35;;;22.20;59.10;;;;;;4969194;28;20089;-53
2022/07/18 00:54:12;;;;;;;10.15;5.13;;;22.20;59.00;;;;;;4966901;28;20046;-53
2022/07/18 00:56:39;;;;;;;9.35;4.45;;;22.20;58.90;;;;;;4968806;28;20084;-53
2022/07/18 00:59:06;;;;;;;10.82;4.13;;;22.10;58.90;;;;;;4967885;28;20047;-54
2022/07/18 01:01:47;;;;;;;8.20;4.10;;;22.20;58.90;;;;;;4968037;28;20089;-56
2022/07/18 01:04:19;;;;;;;6.78;4.22;;;22.10;58.80;;;;;;4969272;28;20039;-55
2022/07/18 01:06:46;;;;;;;8.95;4.60;;;22.20;59.10;;;;;;4968500;28;20748;-54
2022/07/18 01:09:14;;;;;;;10.85;4.57;;;22.20;58.90;;;;;;4969276;28;20086;-52
2022/07/18 01:11:41;;;;;;;10.00;4.53;;;22.20;59.10;;;;;;4958850;28;20055;-54
2022/07/18 01:14:08;;;;;;;8.68;3.78;;;22.20;59.00;;;;;;4967956;28;20058;-54
2022/07/18 01:16:35;;;;;;;5.72;3.75;;;22.10;59.00;;;;;;4968786;28;20043;-55
2022/07/18 01:19:02;;;;;;;7.88;3.80;;;22.00;59.20;;;;;;4969185;28;20055;-55
2022/07/18 01:21:29;;;;;;;8.77;4.50;;;22.00;59.50;;;;;;4967675;28;20078;-56
2022/07/18 01:23:55;;;;;;;8.13;4.07;;;21.90;59.60;;;;;;4969109;28;20078;-54
2022/07/18 01:26:22;;;;;;;11.00;4.55;;;21.90;59.70;;;;;;4631006;28;10000668;-53
2022/07/18 01:28:50;;;;;;;7.70;4.47;;;21.90;59.80;;;;;;4966413;28;20094;-55
2022/07/18 01:31:17;;;;;;;7.75;3.83;;;21.80;59.80;;;;;;4969115;28;20078;-55
2022/07/18 01:33:43;;;;;;;10.48;3.97;;;21.80;60.00;;;;;;4968358;28;20047;-54
2022/07/18 01:36:10;;;;;;;6.70;4.10;;;21.70;60.10;;;;;;4957958;28;20043;-58
2022/07/18 01:38:37;;;;;;;5.00;3.65;;;21.70;60.40;;;;;;4968457;28;20086;-55
2022/07/18 01:41:04;;;;;;;6.95;4.53;;;21.60;60.50;;;;;;4967515;28;20055;-55
2022/07/18 01:43:31;;;;;;;9.30;4.78;;;21.70;60.60;;;;;;4968270;28;20078;-56
2022/07/18 01:45:58;;;;;;;7.05;4.20;;;21.60;60.60;;;;;;4968824;28;20078;-54
2022/07/18 01:48:25;;;;;;;6.97;4.60;;;21.60;60.80;;;;;;4968303;28;20139;-57
2022/07/18 01:50:52;;;;;;;7.80;4.45;;;21.50;61.00;;;;;;4968720;28;20082;-52
2022/07/18 01:53:19;;;;;;;7.72;4.35;;;21.50;61.20;;;;;;4968653;28;20046;-54
2022/07/18 01:55:46;;;;;;;6.45;4.07;;;21.50;61.20;;;;;;4966971;28;20047;-55
2022/07/18 01:58:13;;;;;;;10.43;4.60;;;21.50;61.20;;;;;;4967851;28;20066;-52
2022/07/18 02:00:39;;;;;;;7.40;4.15;;;21.50;61.40;;;;;;4967604;28;20076;-53
2022/07/18 02:03:06;;;;;;;9.95;4.47;;;21.40;61.50;;;;;;4968512;28;20046;-53
2022/07/18 02:05:33;;;;;;;8.82;4.35;;;21.30;61.70;;;;;;4968685;28;20049;-53
2022/07/18 02:08:00;;;;;;;9.35;4.57;;;21.30;61.80;;;;;;4968158;28;20050;-53
2022/07/18 02:10:27;;;;;;;8.90;4.30;;;21.30;61.90;;;;;;4968375;28;20078;-54
2022/07/18 02:12:54;;;;;;;7.45;4.07;;;21.30;61.90;;;;;;4968418;28;20113;-53
2022/07/18 02:15:21;;;;;;;9.88;4.00;;;21.20;62.10;;;;;;4968359;28;20078;-54
2022/07/18 02:17:48;;;;;;;10.15;4.28;;;21.10;62.20;;;;;;4968729;28;20082;-53
2022/07/18 02:20:15;;;;;;;9.07;4.63;;;21.10;62.70;;;;;;4966153;28;20047;-54
2022/07/18 02:22:42;;;;;;;12.55;4.60;;;21.10;62.80;;;;;;4968397;28;20050;-54
2022/07/18 02:25:10;;;;;;;7.35;3.97;;;21.10;63.00;;;;;;4968523;28;20054;-55
2022/07/18 02:27:36;;;;;;;7.40;4.40;;;21.10;63.30;;;;;;4968260;28;20074;-54
2022/07/18 02:30:05;;;;;;;7.20;4.38;;;21.00;63.50;;;;;;4968322;28;20055;-52
2022/07/18 02:32:31;;;;;;;5.70;3.75;;;20.90;63.70;;;;;;4968196;28;20051;-55
2022/07/18 02:34:58;;;;;;;8.80;4.28;;;21.00;63.90;;;;;;4968664;28;20089;-55
2022/07/18 02:37:25;;;;;;;6.90;4.30;;;20.90;64.00;;;;;;4959407;28;20043;-54
2022/07/18 02:39:52;;;;;;;14.38;4.20;;;20.90;64.00;;;;;;4959609;28;20051;-54
2022/07/18 02:42:19;;;;;;;6.78;4.40;;;20.80;64.10;;;;;;4968289;28;20102;-54
2022/07/18 02:44:46;;;;;;;8.48;4.63;;;20.70;64.40;;;;;;4958290;28;20120;-53
2022/07/18 02:47:13;;;;;;;9.20;4.40;;;20.60;64.70;;;;;;4968502;28;20047;-57
2022/07/18 02:49:39;;;;;;;7.30;3.72;;;20.60;64.80;;;;;;4968032;28;20098;-50
2022/07/18 02:52:08;;;;;;;9.50;5.00;;;20.60;65.10;;;;;;4968370;28;20109;-53
2022/07/18 02:54:35;;;;;;;8.23;4.97;;;20.60;65.20;;;;;;4968239;28;20082;-56
2022/07/18 02:57:03;;;;;;;6.22;4.10;;;20.60;65.50;;;;;;4968427;28;20101;-50
2022/07/18 02:59:29;;;;;;;5.22;3.55;;;20.60;65.60;;;;;;4968184;28;20082;-53
2022/07/18 03:01:56;;;;;;;8.65;4.47;;;20.50;65.50;;;;;;4970898;28;20064;-52
2022/07/18 03:04:23;;;;;;;7.20;4.65;;;20.50;65.90;;;;;;4970544;28;20101;-51
2022/07/18 03:06:51;;;;;;;10.57;4.50;;;20.50;66.20;;;;;;4967386;28;20129;-52
2022/07/18 03:09:18;;;;;;;7.72;4.28;;;20.50;66.40;;;;;;4959944;28;20628;-54
2022/07/18 03:11:45;;;;;;;6.82;3.92;;;20.40;66.50;;;;;;4971159;28;20135;-53
2022/07/18 03:14:12;;;;;;;6.70;3.97;;;20.40;66.70;;;;;;4971587;28;20047;-53
2022/07/18 03:16:39;;;;;;;8.43;4.68;;;20.40;67.00;;;;;;4970057;28;20113;-55
2022/07/18 03:19:05;;;;;;;7.63;4.43;;;20.40;67.20;;;;;;4971673;28;20042;-55
2022/07/18 03:21:32;;;;;;;6.57;4.00;;;20.30;67.40;;;;;;4971221;28;20081;-55
2022/07/18 03:23:59;;;;;;;8.07;4.68;;;20.30;67.60;;;;;;4971388;28;20074;-55
2022/07/18 03:26:26;;;;;;;6.10;4.18;;;20.30;67.90;;;;;;4971112;28;20042;-55
2022/07/18 03:28:53;;;;;;;7.32;4.82;;;20.20;68.30;;;;;;4971465;28;20498;-54
2022/07/18 03:31:20;;;;;;;6.88;4.15;;;20.20;68.30;;;;;;4961420;28;20109;-55
2022/07/18 03:33:47;;;;;;;8.50;4.13;;;20.20;68.50;;;;;;4971252;28;20046;-57
2022/07/18 03:36:14;;;;;;;4.55;3.22;;;20.20;68.80;;;;;;4970677;28;20057;-54
2022/07/18 03:38:43;;;;;;;5.80;4.30;;;20.20;69.00;;;;;;4970710;28;20101;-55
2022/07/18 03:41:11;;;;;;;7.35;4.13;;;20.10;69.30;;;;;;4971090;28;20481;-54
2022/07/18 03:43:38;;;;;;;13.13;4.05;;;20.10;69.70;;;;;;4970819;28;20067;-51
2022/07/18 03:46:05;;;;;;;9.45;3.80;;;20.10;69.90;;;;;;4969931;28;20058;-53
2022/07/18 03:48:32;;;;;;;7.05;3.78;;;20.00;70.30;;;;;;4970730;28;20054;-52
2022/07/18 03:50:59;;;;;;;6.57;3.83;;;20.00;70.60;;;;;;4971012;28;20528;-54
2022/07/18 03:53:26;;;;;;;13.45;4.03;;;20.00;70.80;;;;;;4970437;28;20101;-53
2022/07/18 03:55:53;;;;;;;6.32;3.88;;;20.00;71.00;;;;;;4971223;28;20047;-54
2022/07/18 03:58:20;;;;;;;8.68;4.32;;;19.90;71.30;;;;;;4969621;28;20090;-55
2022/07/18 04:00:47;;;;;;;8.82;4.65;;;19.90;71.60;;;;;;4970726;28;20101;-53
2022/07/18 04:03:14;;;;;;;9.02;4.22;;;19.90;71.90;;;;;;4967215;28;20061;-54
2022/07/18 04:05:41;;;;;;;8.32;4.40;;;19.90;72.30;;;;;;4969710;28;20121;-54
2022/07/18 04:08:07;;;;;;;6.68;4.25;;;19.90;72.60;;;;;;4970675;28;20051;-53
2022/07/18 04:10:34;;;;;;;5.45;4.03;;;19.90;72.90;;;;;;4970454;28;20050;-55
2022/07/18 04:13:01;;;;;;;11.05;4.70;;;19.90;73.10;;;;;;4969767;28;20051;-53
2022/07/18 04:15:29;;;;;;;10.38;4.38;;;19.90;74.10;;;;;;4969990;28;20577;-53
2022/07/18 04:17:56;;;;;;;6.45;4.13;;;19.80;73.80;;;;;;4969355;28;20101;-53
2022/07/18 04:20:23;;;;;;;8.55;4.50;;;19.90;74.00;;;;;;4970050;28;20050;-54
2022/07/18 04:22:52;;;;;;;9.65;4.00;;;19.80;74.10;;;;;;4970414;28;20079;-56
2022/07/18 04:25:20;;;;;;;6.78;4.43;;;19.80;74.50;;;;;;4970286;28;20042;-55
2022/07/18 04:27:47;;;;;;;6.45;3.63;;;19.80;74.80;;;;;;4970302;28;20042;-54
2022/07/18 04:30:15;;;;;;;8.88;3.80;;;19.80;75.00;;;;;;4970429;28;20549;-53
2022/07/18 04:32:41;;;;;;;7.57;3.78;;;19.90;75.50;;;;;;4968703;28;20161;-52
2022/07/18 04:35:08;;;;;;;9.88;4.25;;;19.90;75.80;;;;;;4970263;28;20050;-53
2022/07/18 04:37:35;;;;;;;15.80;4.68;;;19.80;76.00;;;;;;4969341;28;20051;-53
2022/07/18 04:40:02;;;;;;;16.27;5.90;;;19.90;76.50;;;;;;4970011;28;20078;-53
2022/07/18 04:42:30;;;;;;;12.02;4.32;;;19.80;76.70;;;;;;4969978;28;20078;-52
2022/07/18 04:44:58;;;;;;;7.55;3.78;;;19.90;76.80;;;;;;4969969;28;20101;-54
2022/07/18 04:47:25;;;;;;;7.45;3.95;;;19.90;77.10;;;;;;4969667;28;20086;-54
2022/07/18 04:49:55;;;;;;;10.77;3.97;;;20.00;77.40;;;;;;4969825;28;20055;-55
2022/07/18 04:52:23;;;;;;;18.27;4.68;;;20.00;77.80;;;;;;4969931;28;20418;-52
2022/07/18 04:54:50;;;;;;;8.93;4.38;;;20.00;78.10;;;;;;4969793;28;20517;-52
2022/07/18 04:57:17;;;;;;;15.05;3.47;;;20.10;78.00;;;;;;4969697;28;20057;-56
2022/07/18 04:59:45;;;;;;;16.00;4.40;;;20.20;78.20;;;;;;4968134;28;20043;-55
2022/07/18 05:02:12;;;;;;;7.90;4.05;;;20.20;78.30;;;;;;4968277;28;20514;-54
2022/07/18 05:04:39;;;;;;;15.20;4.82;;;20.30;78.20;;;;;;4969389;28;20043;-55
2022/07/18 05:07:06;;;;;;;9.00;4.28;;;20.40;78.50;;;;;;4969153;28;20129;-53
2022/07/18 05:09:33;;;;;;;6.25;3.80;;;20.40;78.70;;;;;;4969521;28;20043;-56
2022/07/18 05:12:00;;;;;;;9.05;3.60;;;20.40;78.80;;;;;;4969457;28;20046;-52
2022/07/18 05:14:28;;;;;;;8.52;3.90;;;20.50;79.00;;;;;;4969012;28;20054;-55
2022/07/18 05:16:55;;;;;;;8.95;4.00;;;20.60;79.10;;;;;;4969537;28;20098;-54
2022/07/18 05:19:22;;;;;;;18.05;3.92;;;20.60;79.00;;;;;;4969348;28;20042;-53
2022/07/18 05:21:49;;;;;;;11.57;3.75;;;20.70;78.80;;;;;;4969211;28;20569;-55
2022/07/18 05:24:16;;;;;;;22.38;5.82;;;20.70;78.70;;;;;;4968683;28;20557;-56
2022/07/18 05:26:43;;;;;;;15.45;4.13;;;20.80;79.10;;;;;;4968964;28;20078;-54
2022/07/18 05:29:12;;;;;;;14.77;4.00;;;20.90;79.10;;;;;;4969258;28;20054;-54
2022/07/18 05:31:40;;;;;;;10.02;3.85;;;21.00;79.60;;;;;;4968149;28;20050;-54
2022/07/18 05:34:08;;;;;;;10.07;4.20;;;21.00;79.20;;;;;;4958469;28;20051;-54
2022/07/18 05:36:35;;;;;;;12.35;3.55;;;21.10;79.80;;;;;;4968232;28;20057;-52
2022/07/18 05:39:02;;;;;;;20.02;5.82;;;21.20;79.40;;;;;;4958594;28;20089;-52
2022/07/18 05:41:29;;;;;;;82.43;13.90;;;21.30;79.30;;;;;;4966957;28;20055;-52
2022/07/18 05:43:56;;;;;;;40.00;7.72;;;21.30;78.60;;;;;;4968859;28;20042;-56
2022/07/18 05:46:23;;;;;;;23.63;5.05;;;21.40;78.00;;;;;;4968844;28;20086;-51
2022/07/18 05:48:51;;;;;;;38.97;8.05;;;21.40;76.90;;;;;;4967259;28;20047;-54
2022/07/18 05:51:18;;;;;;;24.38;6.63;;;21.50;77.80;;;;;;4968795;28;20047;-56
2022/07/18 05:53:45;;;;;;;16.27;4.75;;;21.60;76.80;;;;;;4967843;28;20101;-56
2022/07/18 05:56:12;;;;;;;10.15;3.03;;;21.70;75.80;;;;;;4967918;28;20047;-56
2022/07/18 05:58:39;;;;;;;8.77;2.42;;;21.70;74.80;;;;;;4968125;28;20065;-53
2022/07/18 06:01:16;;;;;;;5.03;1.90;;;21.80;73.00;;;;;;4968323;28;20051;-56
2022/07/18 06:03:43;;;;;;;7.72;1.80;;;22.00;71.60;;;;;;4962136;28;20745;-55
2022/07/18 06:06:10;;;;;;;6.22;2.00;;;22.10;70.20;;;;;;4967666;28;20050;-56
2022/07/18 06:08:37;;;;;;;3.67;2.05;;;22.20;69.60;;;;;;4967816;28;20561;-54
2022/07/18 06:11:06;;;;;;;3.58;2.25;;;22.30;68.70;;;;;;4967780;28;20097;-53
2022/07/18 06:13:37;;;;;;;6.57;2.05;;;22.40;68.10;;;;;;4967866;28;20109;-54
2022/07/18 06:16:05;;;;;;;7.18;2.03;;;22.50;67.10;;;;;;4968450;28;20155;-53
2022/07/18 06:18:34;;;;;;;5.05;1.92;;;22.60;67.10;;;;;;4967740;28;20498;-53
2022/07/18 06:21:04;;;;;;;9.82;2.30;;;22.70;66.60;;;;;;4966668;28;20074;-54
2022/07/18 06:23:31;;;;;;;9.00;1.95;;;22.80;65.80;;;;;;4964758;28;20074;-53
2022/07/18 06:25:58;;;;;;;3.78;2.20;;;22.80;65.80;;;;;;4968171;28;20532;-55
2022/07/18 06:28:25;;;;;;;5.80;2.28;;;22.90;65.40;;;;;;4967917;28;20105;-54
2022/07/18 06:30:52;;;;;;;7.10;1.85;;;22.90;65.20;;;;;;4968132;28;20470;-54
2022/07/18 06:33:19;;;;;;;4.80;1.67;;;23.00;64.90;;;;;;4965772;28;20051;-53
2022/07/18 06:35:46;;;;;;;4.95;2.00;;;23.10;64.60;;;;;;4968697;28;20051;-54
2022/07/18 06:38:14;;;;;;;4.93;2.55;;;23.10;64.30;;;;;;4972005;28;20047;-54
2022/07/18 06:40:41;;;;;;;7.03;2.17;;;23.20;64.20;;;;;;4971854;28;20054;-52
2022/07/18 06:43:08;;;;;;;3.92;2.17;;;23.20;63.90;;;;;;4971958;28;20461;-54
2022/07/18 06:45:35;;;;;;;5.63;1.77;;;23.40;63.80;;;;;;4969102;28;20047;-53
2022/07/18 06:48:02;;;;;;;6.93;1.98;;;23.40;63.70;;;;;;4967061;28;20101;-55
2022/07/18 06:50:29;;;;;;;5.03;1.65;;;23.50;63.50;;;;;;4965413;28;20081;-52
2022/07/18 06:52:56;;;;;;;5.65;1.73;;;23.60;63.10;;;;;;4964276;28;20391;-55
2022/07/18 06:55:23;;;;;;;2.78;1.88;;;23.60;62.90;;;;;;4960033;28;20074;-54
2022/07/18 06:57:49;;;;;;;2.83;1.50;;;23.70;62.50;;;;;;4963952;28;20113;-54
2022/07/18 07:00:16;;;;;;;2.53;1.67;;;23.70;62.30;;;;;;4970795;28;20102;-52
2022/07/18 07:02:45;;;;;;;12.73;2.30;;;23.80;62.10;;;;;;4970255;28;20050;-53
2022/07/18 07:05:13;;;;;;;6.40;2.53;;;23.90;63.30;;;;;;4969805;28;20042;-52
2022/07/18 07:07:40;;;;;;;8.02;2.97;;;23.90;62.60;;;;;;4970521;28;20686;-53
2022/07/18 07:10:13;;;;;;;;;;;24.10;62.40;;;;;;4971170;28;20092;-54
2022/07/18 07:12:41;;;;;;;4.07;1.90;;;24.20;61.00;;;;;;4970722;28;19993;-52
2022/07/18 07:15:08;;;;;;;5.05;2.58;;;24.30;61.60;;;;;;4971071;28;20517;-55
2022/07/18 07:17:36;;;;;;;3.17;2.05;;;24.30;61.50;;;;;;4971188;28;20125;-56
2022/07/18 07:20:06;;;;;;;5.95;2.08;;;24.40;60.40;;;;;;4970832;28;20110;-53
2022/07/18 07:22:46;;;;;;;3.78;1.85;;;24.50;59.50;;;;;;4970826;28;20453;-53
2022/07/18 07:25:13;;;;;;;4.18;1.63;;;24.60;58.60;;;;;;4970138;28;20430;-55
2022/07/18 07:27:40;;;;;;;9.70;2.67;;;24.70;59.50;;;;;;4969616;28;20055;-60
2022/07/18 07:30:08;;;;;;;3.97;1.83;;;24.70;60.00;;;;;;4969466;28;20186;-55
2022/07/18 07:32:38;;;;;;;8.60;2.17;;;24.80;59.50;;;;;;4970452;28;20046;-52
2022/07/18 07:35:11;;;;;;;8.68;2.30;;;24.80;59.00;;;;;;4970686;28;20067;-53
2022/07/18 07:37:39;;;;;;;7.22;2.20;;;25.00;58.30;;;;;;4970533;28;20167;-54
2022/07/18 07:40:06;;;;;;;11.57;2.03;;;25.20;58.80;;;;;;4970492;28;20050;-55
2022/07/18 07:42:33;;;;;;;5.18;1.73;;;25.30;58.30;;;;;;4970282;28;20054;-55
2022/07/18 07:45:00;;;;;;;3.58;1.67;;;25.40;58.60;;;;;;4970499;28;20109;-55
2022/07/18 07:47:28;;;;;;;2.28;1.60;;;25.50;58.20;;;;;;4969298;28;20055;-52
2022/07/18 07:49:56;;;;;;;8.45;1.55;;;25.50;57.80;;;;;;4969795;28;20043;-49
2022/07/18 07:52:23;;;;;;;5.45;2.03;;;25.60;57.20;;;;;;4970679;28;20051;-56
2022/07/18 07:54:51;;;;;;;4.35;1.90;;;25.80;56.20;;;;;;4970938;28;20051;-55
2022/07/18 07:57:18;;;;;;;4.95;1.45;;;25.90;56.00;;;;;;4971005;28;20137;-51
2022/07/18 07:59:44;;;;;;;6.85;1.85;;;26.10;55.20;;;;;;4970073;28;20738;-54
2022/07/18 08:02:11;;;;;;;3.35;1.45;;;26.30;55.40;;;;;;4970266;28;20038;-55
2022/07/18 08:04:38;;;;;;;5.20;2.72;;;26.40;55.10;;;;;;4970150;28;20125;-55
2022/07/18 08:07:05;;;;;;;3.50;1.90;;;26.60;54.90;;;;;;4969432;28;20055;-55
2022/07/18 08:09:32;;;;;;;5.03;1.70;;;26.60;54.50;;;;;;4970035;28;20050;-53
2022/07/18 08:11:59;;;;;;;3.75;1.27;;;26.70;54.60;;;;;;4969464;28;20047;-54
2022/07/18 08:14:26;;;;;;;3.67;1.55;;;26.90;54.00;;;;;;4970294;28;20055;-55
2022/07/18 08:16:52;;;;;;;2.80;1.52;;;27.00;53.90;;;;;;4969694;28;20090;-53
2022/07/18 08:19:20;;;;;;;3.15;1.60;;;27.10;53.80;;;;;;4970020;28;20078;-53
2022/07/18 08:21:47;;;;;;;4.15;1.58;;;27.20;52.70;;;;;;4965257;28;20054;-55
2022/07/18 08:24:14;;;;;;;2.63;1.30;;;27.30;53.60;;;;;;4970472;28;20054;-56
2022/07/18 08:26:40;;;;;;;3.40;1.60;;;27.40;52.80;;;;;;4969803;28;20087;-54
2022/07/18 08:29:07;;;;;;;3.85;1.60;;;27.40;52.20;;;;;;4970062;28;20062;-54
2022/07/18 08:31:34;;;;;;;5.78;1.60;;;27.50;51.80;;;;;;4968321;28;20505;-56
2022/07/18 08:34:02;;;;;;;4.22;1.48;;;27.70;51.40;;;;;;4968393;28;20311;-55
2022/07/18 08:36:29;;;;;;;5.85;1.45;;;27.80;50.00;;;;;;4969577;28;20043;-56
2022/07/18 08:39:00;;;;;;;5.60;1.33;;;28.00;50.60;;;;;;4969695;28;20516;-55
2022/07/18 08:41:27;;;;;;;1.85;1.13;;;28.20;50.60;;;;;;4968387;28;20090;-54
2022/07/18 08:43:54;;;;;;;4.00;1.60;;;28.30;50.60;;;;;;4966210;28;20049;-53
2022/07/18 08:46:21;;;;;;;3.38;1.73;;;28.40;50.10;;;;;;4968307;28;20108;-58
2022/07/18 08:48:49;;;;;;;3.38;1.40;;;28.50;50.00;;;;;;4968641;28;20101;-56
2022/07/18 08:51:15;;;;;;;6.57;1.77;;;28.50;49.80;;;;;;4968962;28;20047;-55
2022/07/18 08:53:42;;;;;;;4.85;1.48;;;28.50;49.10;;;;;;4967564;28;20105;-54
2022/07/18 08:56:09;;;;;;;4.25;1.77;;;28.60;50.10;;;;;;4960118;28;20050;-54
2022/07/18 08:58:36;;;;;;;3.28;1.30;;;28.60;49.30;;;;;;4967350;28;20054;-55
2022/07/18 09:01:12;;;;;;;3.92;1.95;;;28.70;50.00;;;;;;4965155;28;20051;-52
2022/07/18 09:03:39;;;;;;;3.97;1.48;;;28.70;50.00;;;;;;4960649;28;20051;-53
2022/07/18 09:06:11;;;;;;;3.05;1.20;;;28.80;49.90;;;;;;4969986;28;20135;-55
2022/07/18 09:08:39;;;;;;;7.50;2.28;;;28.80;49.20;;;;;;4944732;28;20133;-56
2022/07/18 09:11:10;;;;;;;3.08;1.65;;;28.90;49.80;;;;;;4969156;28;20051;-54
2022/07/18 09:13:57;;;;;;;3.38;1.50;;;29.10;49.00;;;;;;4969097;28;20479;-56
2022/07/18 09:16:26;;;;;;;4.10;1.40;;;29.30;49.00;;;;;;4967843;28;20510;-54
2022/07/18 09:18:53;;;;;;;2.25;1.17;;;29.40;49.30;;;;;;4968653;28;20055;-54
2022/07/18 09:21:22;;;;;;;6.97;2.10;;;29.60;48.80;;;;;;4967128;28;20054;-57
2022/07/18 09:23:50;;;;;;;5.90;1.52;;;29.60;48.60;;;;;;4968544;28;20093;-54
2022/07/18 09:26:52;;;;;;;1.92;1.35;;;29.70;48.50;;;;;;4967590;28;20050;-51
2022/07/18 09:29:19;;;;;;;3.95;1.45;;;29.80;47.20;;;;;;4946668;29;20048;-55
2022/07/18 09:31:57;;;;;;;2.83;1.50;;;29.80;48.00;;;;;;4966241;28;20207;-56
2022/07/18 09:34:38;;;;;;;4.70;1.80;;;29.80;48.00;;;;;;4967182;28;20078;-53
2022/07/18 09:37:10;;;;;;;7.05;1.52;;;29.90;46.80;;;;;;4968842;28;20109;-55
2022/07/18 09:39:36;;;;;;;6.88;1.70;;;30.10;48.00;;;;;;4967045;28;20042;-56
2022/07/18 09:42:16;;;;;;;7.97;2.13;;;30.10;47.60;;;;;;4968536;28;20055;-59
2022/07/18 09:45:00;;;;;;;3.50;1.60;;;30.20;47.00;;;;;;4968084;28;20054;-56
2022/07/18 09:47:27;;;;;;;4.82;2.20;;;30.30;47.50;;;;;;4967443;28;20046;-55
2022/07/18 09:49:54;;;;;;;4.40;1.58;;;30.40;47.90;;;;;;4967725;28;20102;-55
2022/07/18 09:52:22;;;;;;;2.28;1.45;;;30.40;48.10;;;;;;4969181;28;20078;-54
2022/07/18 09:54:48;;;;;;;8.15;1.70;;;30.40;48.00;;;;;;4967216;28;20047;-55
2022/07/18 09:57:25;;;;;;;4.15;1.73;;;30.40;48.00;;;;;;4968914;28;20058;-56
2022/07/18 09:59:52;;;;;;;5.28;1.27;;;30.40;46.60;;;;;;4968513;28;20142;-54
2022/07/18 10:02:19;;;;;;;9.82;2.45;;;30.50;47.40;;;;;;4968429;28;20057;-56
2022/07/18 10:04:46;;;;;;;4.07;1.60;;;30.60;47.60;;;;;;4967262;28;20051;-56
2022/07/18 10:07:13;;;;;;;2.95;1.23;;;30.70;47.70;;;;;;4968734;28;20047;-56
2022/07/18 10:09:40;;;;;;;7.28;1.65;;;30.90;47.40;;;;;;4968056;28;20093;-56
2022/07/18 10:12:07;;;;;;;3.40;1.33;;;31.10;46.80;;;;;;4969692;28;20203;-55
2022/07/18 10:14:34;;;;;;;5.65;1.48;;;31.40;46.40;;;;;;4974662;28;20050;-53
2022/07/18 10:17:01;;;;;;;8.45;1.63;;;31.60;47.00;;;;;;4973850;28;20082;-55
2022/07/18 10:19:28;;;;;;;6.47;1.48;;;31.90;47.00;;;;;;4974315;28;20046;-55
2022/07/18 10:21:55;;;;;;;6.00;1.95;;;32.20;46.40;;;;;;4973230;28;20047;-55
2022/07/18 10:24:21;;;;;;;1.98;1.52;;;32.50;46.80;;;;;;4973576;28;20608;-53
2022/07/18 10:27:19;;;;;;;1.67;1.13;;;32.80;46.30;;;;;;4974290;28;20042;-53
2022/07/18 10:30:12;;;;;;;2.95;1.55;;;32.90;43.60;;;;;;4974777;28;20054;-54
2022/07/18 10:32:39;;;;;;;8.32;1.60;;;32.90;43.80;;;;;;4974603;28;20057;-57
2022/07/18 10:35:10;;;;;;;6.43;2.05;;;33.00;44.60;;;;;;4974467;28;20047;-56
2022/07/18 10:37:38;;;;;;;3.35;1.40;;;33.10;44.80;;;;;;4974426;28;20046;-56
2022/07/18 10:40:28;;;;;;;5.68;1.77;;;33.30;45.00;;;;;;4974377;28;20089;-55
2022/07/18 10:43:29;;;;;;;6.38;1.80;;;33.60;42.90;;;;;;4967549;28;20051;-56
2022/07/18 10:45:58;;;;;;;11.85;2.22;;;33.70;42.80;;;;;;4620624;28;10000084;-54
2022/07/18 10:48:37;;;;;;;3.00;1.45;;;33.90;44.70;;;;;;4970035;28;20044;-54
2022/07/18 10:51:08;;;;;;;3.65;1.60;;;34.00;42.80;;;;;;4962548;28;20109;-54
2022/07/18 10:53:59;;;;;;;5.78;1.63;;;34.20;44.40;;;;;;4971655;28;20043;-56
2022/07/18 10:56:29;;;;;;;2.15;1.17;;;34.20;43.80;;;;;;4969244;28;20142;-56
2022/07/18 10:58:56;;;;;;;10.25;1.40;;;34.00;43.30;;;;;;4964886;28;20133;-55
2022/07/18 11:01:24;;;;;;;4.03;1.77;;;33.80;43.80;;;;;;4971804;28;20046;-55
2022/07/18 11:04:09;;;;;;;6.38;1.73;;;33.70;43.90;;;;;;4972021;28;20059;-55
2022/07/18 11:06:55;;;;;;;7.43;1.60;;;33.50;43.60;;;;;;4959138;28;20055;-56
2022/07/18 11:09:39;;;;;;;3.55;1.67;;;33.20;42.90;;;;;;4971011;28;20062;-56
2022/07/18 11:12:20;;;;;;;4.43;1.52;;;33.10;43.00;;;;;;4971050;28;20054;-58
2022/07/18 11:15:05;;;;;;;2.33;1.50;;;33.00;41.20;;;;;;4970849;28;20062;-52
2022/07/18 11:17:52;;;;;;;2.75;1.30;;;32.90;41.00;;;;;;4971706;28;20501;-56
2022/07/18 11:20:40;;;;;;;5.18;2.20;;;33.00;41.20;;;;;;4971429;28;20042;-56
2022/07/18 11:23:18;;;;;;;4.80;1.70;;;32.90;42.20;;;;;;4967879;28;20055;-58
2022/07/18 11:25:46;;;;;;;5.40;2.08;;;32.80;42.90;;;;;;4969083;28;20110;-57
2022/07/18 11:28:28;;;;;;;5.00;1.42;;;32.80;43.30;;;;;;4968549;28;20432;-56
2022/07/18 11:30:59;;;;;;;5.90;2.28;;;32.80;43.00;;;;;;4969343;28;20097;-55
2022/07/18 11:33:28;;;;;;;4.03;1.50;;;32.80;42.00;;;;;;4967287;28;20077;-57
2022/07/18 11:36:12;;;;;;;10.20;1.58;;;32.80;42.20;;;;;;4968797;28;20055;-54
2022/07/18 11:38:54;;;;;;;5.75;1.73;;;32.80;41.20;;;;;;4968503;28;20055;-57
2022/07/18 11:41:21;;;;;;;5.35;1.35;;;32.90;41.10;;;;;;4967411;28;20066;-57
2022/07/18 11:43:49;;;;;;;6.68;1.80;;;33.00;42.40;;;;;;4968527;28;20109;-55
2022/07/18 11:46:18;;;;;;;3.92;1.50;;;33.00;42.50;;;;;;4968442;28;20100;-57
2022/07/18 11:48:46;;;;;;;8.27;1.92;;;33.00;43.00;;;;;;4967726;28;20109;-56
2022/07/18 11:51:17;;;;;;;5.15;1.58;;;33.10;43.20;;;;;;4965363;28;20518;-56
2022/07/18 11:53:45;;;;;;;5.65;1.55;;;33.10;42.20;;;;;;4968179;28;20047;-54
2022/07/18 11:56:12;;;;;;;6.97;1.73;;;33.00;43.10;;;;;;4968410;28;20110;-56
2022/07/18 11:58:40;;;;;;;4.43;1.50;;;33.10;43.20;;;;;;4982750;28;20078;-56
2022/07/18 12:01:07;;;;;;;2.25;1.23;;;33.10;43.20;;;;;;4967082;28;20078;-56
2022/07/18 12:03:39;;;;;;;4.55;1.45;;;33.10;43.30;;;;;;4967960;28;20058;-55
2022/07/18 12:06:20;;;;;;;3.58;1.42;;;33.20;42.80;;;;;;4966747;28;20183;-55
2022/07/18 12:08:56;;;;;;;3.08;1.35;;;33.30;42.90;;;;;;4959900;28;20399;-54
2022/07/18 12:11:31;;;;;;;3.55;1.27;;;33.40;43.20;;;;;;4967834;28;20516;-54
2022/07/18 12:14:17;;;;;;;5.20;1.40;;;33.50;42.30;;;;;;4967751;28;20058;-55
2022/07/18 12:16:46;;;;;;;5.88;1.75;;;33.50;42.00;;;;;;4968015;28;20089;-56
2022/07/18 12:19:15;;;;;;;3.70;1.63;;;33.60;42.50;;;;;;4963220;28;20051;-57
2022/07/18 12:21:56;;;;;;;4.45;1.42;;;33.70;42.50;;;;;;4967756;28;20078;-57
2022/07/18 12:24:40;;;;;;;4.07;1.48;;;33.70;41.70;;;;;;4967431;28;20109;-56
2022/07/18 12:27:12;;;;;;;2.67;1.55;;;33.70;42.00;;;;;;4963019;28;20063;-53
2022/07/18 12:30:07;;;;;;;6.55;1.40;;;33.60;41.10;;;;;;4960606;28;20113;-57
2022/07/18 12:32:52;;;;;;;7.03;1.52;;;33.70;40.40;;;;;;4963292;28;20050;-57
2022/07/18 12:35:24;;;;;;;2.65;1.38;;;34.00;41.80;;;;;;4963016;28;20047;-57
2022/07/18 12:38:05;;;;;;;6.32;1.40;;;33.90;41.20;;;;;;4966523;28;20078;-56
2022/07/18 12:40:54;;;;;;;1.88;1.33;;;33.90;41.10;;;;;;4961399;28;20528;-54
2022/07/18 12:43:31;;;;;;;2.40;1.33;;;33.80;39.60;;;;;;4961346;28;20106;-56
2022/07/18 12:46:00;;;;;;;6.85;1.20;;;33.80;39.80;;;;;;4965623;28;20046;-55
2022/07/18 12:48:27;;;;;;;5.28;1.48;;;33.90;41.50;;;;;;4959975;28;20065;-55
2022/07/18 12:51:02;;;;;;;5.97;1.23;;;34.00;40.50;;;;;;4962468;28;20138;-55
2022/07/18 12:53:30;;;;;;;6.00;1.17;;;34.30;39.60;;;;;;4956128;28;20094;-55
2022/07/18 12:55:57;;;;;;;5.15;1.50;;;34.50;40.20;;;;;;4962720;28;20058;-56